createdAt,value
2022-10-12T00:19:03.279Z,100544.75
2022-10-12T01:12:50.433Z,100556.37
2022-10-12T01:27:26.594Z,100558.75
2022-10-12T01:30:36.795Z,100547.96
2022-10-12T01:32:07.267Z,100559.78
2022-10-12T01:35:00.839Z,100561.16
2022-10-12T01:36:43.477Z,100557.75
2022-10-12T01:37:44.902Z,100557.75
2022-10-12T01:39:01.975Z,100556.45
2022-10-12T02:02:55.237Z,100566.23
2022-10-12T02:04:20.068Z,100569.75
2022-10-12T02:05:31.589Z,100564.40
2022-10-12T02:07:52.099Z,100570.73
2022-10-12T02:08:19.483Z,100564.40
2022-10-12T02:08:59.019Z,100574.40
2022-10-12T02:10:07.643Z,100574.40
2022-10-12T02:11:17.136Z,100571.72
2022-10-12T02:12:24.047Z,100576.34
2022-10-12T02:13:37.957Z,100574.66
2022-10-12T03:04:08.672Z,100594.16
2022-10-12T03:05:10.957Z,100594.86
2022-10-12T03:06:19.262Z,100595.34
2022-10-12T03:23:51.816Z,100611.88
2022-10-12T03:24:55.724Z,100611.88
2022-10-12T03:25:59.737Z,100614.20
2022-10-12T03:27:06.570Z,100614.20
2022-10-12T03:28:10.676Z,100608.60
2022-10-12T03:29:14.715Z,100614.80
2022-10-12T03:30:18.796Z,100620.88
2022-10-12T03:31:22.902Z,100614.55
2022-10-12T03:32:26.936Z,100612.61
2022-10-12T03:33:30.906Z,100609.83
2022-10-12T03:34:37.970Z,100623.05
2022-10-12T03:35:46.894Z,100612.25
2022-10-12T03:36:52.263Z,100626.45
2022-10-12T03:37:56.157Z,100615.77
2022-10-12T03:39:04.579Z,100628.14
2022-10-12T03:40:10.961Z,100628.14
2022-10-12T03:41:19.102Z,100626.45
2022-10-12T03:42:28.104Z,100630.82
2022-10-12T03:43:31.691Z,100626.31
2022-10-12T03:44:37.263Z,100626.31
2022-10-12T03:45:49.055Z,100625.61
2022-10-12T03:48:03.721Z,100623.78
2022-10-12T04:13:22.778Z,100636.78
2022-10-12T05:10:48.282Z,100688.62
2022-10-12T05:13:15.107Z,100693.77
2022-10-12T05:14:20.541Z,100694.97
2022-10-12T05:15:27.593Z,100694.44
2022-10-12T05:16:31.690Z,100701.72
2022-10-12T05:17:47.086Z,100695.83
2022-10-12T05:36:42.742Z,100716.48
2022-10-12T07:41:19.525Z,100812.25
2022-10-12T07:42:15.529Z,100816.94
2022-10-12T07:43:21.346Z,100811.09
2022-10-12T07:44:25.249Z,100816.49
2022-10-12T07:45:30.877Z,100812.47
2022-10-12T07:46:35.118Z,100810.03
2022-10-12T07:47:40.866Z,100810.39
2022-10-12T08:46:02.028Z,100821.55
2022-10-12T08:47:32.456Z,100819.23
2022-10-12T09:22:54.950Z,100805.18
2022-10-12T09:45:33.313Z,100810.48
2022-10-12T09:56:13.226Z,100819.64
2022-10-12T09:56:44.392Z,100810.53
2022-10-12T09:58:04.080Z,100821.38
2022-10-12T10:01:00.151Z,100817.38
2022-10-12T10:02:19.117Z,100817.38
2022-10-12T10:03:30.790Z,100810.91
2022-10-12T10:04:33.205Z,100803.13
2022-10-12T10:05:39.420Z,100822.42
2022-10-12T10:06:51.504Z,100819.39
2022-10-12T10:08:23.535Z,100808.75
2022-10-12T10:09:33.121Z,100809.25
2022-10-12T10:10:41.567Z,100820.77
2022-10-12T10:11:45.584Z,100820.77
2022-10-12T10:12:54.690Z,100801.62
2022-10-12T10:14:01.286Z,100801.62
2022-10-12T10:15:09.886Z,100805.86
2022-10-12T10:17:55.605Z,100798.94
2022-10-12T10:19:03.697Z,100804.89
2022-10-12T10:20:10.277Z,100796.44
2022-10-12T10:24:28.057Z,100797.48
2022-10-12T10:25:33.536Z,100796.80
2022-10-12T10:26:55.417Z,100794.44
2022-10-12T10:28:14.386Z,100797.15
2022-10-12T10:29:24.319Z,100793.07
2022-10-12T10:30:35.203Z,100797.49
2022-10-12T10:31:33.992Z,100794.78
2022-10-12T10:32:37.940Z,100794.78
2022-10-12T10:33:44.244Z,100802.56
2022-10-12T10:34:48.142Z,100803.22
2022-10-12T10:36:25.731Z,100799.67
2022-10-12T10:37:33.420Z,100799.67
2022-10-12T10:38:55.149Z,100795.78
2022-10-12T10:40:00.076Z,100799.52
2022-10-12T10:41:06.969Z,100803.75
2022-10-12T10:42:24.811Z,100798.83
2022-10-12T10:43:40.791Z,100807.28
2022-10-12T10:46:12.217Z,100803.55
2022-10-12T10:48:50.535Z,100797.64
2022-10-12T10:49:03.003Z,100803.89
2022-10-12T10:50:02.553Z,100801.17
2022-10-12T10:51:10.083Z,100809.28
2022-10-12T10:52:33.712Z,100808.95
2022-10-12T10:53:47.661Z,100808.95
2022-10-12T10:55:20.281Z,100812.48
2022-10-12T10:56:26.994Z,100812.48
2022-10-12T10:57:31.544Z,100810.78
2022-10-12T10:58:47.160Z,100800.78
2022-10-12T11:00:26.381Z,100810.58
2022-10-12T11:01:34.718Z,100808.06
2022-10-12T12:36:37.586Z,100804.92
2022-10-12T12:41:36.978Z,100806.61
2022-10-12T13:29:23.543Z,100807.14
2022-10-12T13:30:43.117Z,100807.14
2022-10-12T13:31:49.209Z,100800.36
2022-10-12T13:33:10.651Z,100795.97
2022-10-12T13:33:13.244Z,100802.70
2022-10-12T13:34:25.904Z,100799.99
2022-10-12T13:35:49.578Z,100806.58
2022-10-12T13:37:04.878Z,100806.58
2022-10-12T13:38:34.204Z,100796.56
2022-10-12T13:39:45.335Z,100796.56
2022-10-12T13:41:00.151Z,100805.63
2022-10-12T13:42:08.683Z,100792.77
2022-10-12T13:43:29.039Z,100792.77
2022-10-12T13:46:00.428Z,100807.92
2022-10-12T14:31:57.585Z,100810.44
2022-10-12T14:33:21.140Z,100810.44
2022-10-12T14:34:36.532Z,100808.20
2022-10-12T14:35:40.813Z,100807.67
2022-10-12T14:37:01.190Z,100807.67
2022-10-12T15:31:51.158Z,100832.80
2022-10-12T15:33:09.225Z,100832.80
2022-10-12T15:34:08.257Z,100839.88
2022-10-12T15:35:24.240Z,100835.66
2022-10-12T15:36:36.065Z,100838.19
2022-10-12T17:13:28.584Z,100881.72
2022-10-12T17:40:13.674Z,100875.23
2022-10-12T17:44:43.743Z,100874.10
2022-10-12T17:45:49.188Z,100563.11
2022-10-12T17:46:54.893Z,100877.18
2022-10-12T17:47:58.746Z,100877.30
2022-10-12T17:49:02.616Z,100813.05
2022-10-12T17:50:07.038Z,100874.05
2022-10-12T17:51:11.945Z,100880.41
2022-10-12T17:52:17.412Z,100884.06
2022-10-12T17:53:21.627Z,100878.97
2022-10-12T17:54:26.434Z,100880.69
2022-10-12T17:55:47.623Z,100880.69
2022-10-12T17:56:39.056Z,100883.64
2022-10-12T17:57:43.018Z,100883.64
2022-10-12T17:58:46.978Z,100882.19
2022-10-12T17:59:50.918Z,100882.19
2022-10-12T18:00:54.984Z,100863.99
2022-10-12T18:02:02.652Z,100886.27
2022-10-12T18:03:09.278Z,100888.10
2022-10-12T18:04:13.923Z,100888.10
2022-10-12T18:05:17.986Z,100889.06
2022-10-12T18:06:24.150Z,100891.30
2022-10-12T18:07:28.173Z,100891.30
2022-10-12T18:08:33.613Z,100891.56
2022-10-12T18:09:39.054Z,100895.24
2022-10-12T18:10:42.982Z,100896.20
2022-10-12T18:11:53.439Z,100896.20
2022-10-12T18:12:53.209Z,100899.85
2022-10-12T18:13:58.327Z,100893.91
2022-10-12T18:15:02.547Z,100898.43
2022-10-12T18:16:11.438Z,100901.37
2022-10-12T18:17:17.017Z,100897.13
2022-10-12T18:18:24.054Z,100896.39
2022-10-12T18:19:31.240Z,100893.83
2022-10-12T18:20:35.478Z,100893.83
2022-10-12T18:21:45.479Z,100895.78
2022-10-12T18:22:49.246Z,100903.84
2022-10-12T18:23:55.283Z,100904.71
2022-10-12T18:25:03.556Z,100900.30
2022-10-12T18:26:17.827Z,100903.84
2022-10-12T18:27:20.224Z,100910.20
2022-10-12T18:28:24.235Z,100908.36
2022-10-12T18:29:29.939Z,100905.83
2022-10-12T18:33:27.303Z,100906.09
2022-10-12T19:12:00.722Z,100924.83
2022-10-12T19:15:11.784Z,100926.52
2022-10-12T19:44:29.800Z,100930.64
2022-10-12T19:44:32.995Z,100930.75
2022-10-12T19:45:40.804Z,100929.55
2022-10-12T19:46:46.868Z,100932.93
2022-10-12T19:47:52.496Z,100935.39
2022-10-12T19:49:01.090Z,100935.39
2022-10-12T19:50:08.880Z,100933.05
2022-10-12T19:51:55.417Z,100931.95
2022-10-12T19:55:28.167Z,100930.19
2022-10-12T19:56:32.281Z,100932.66
2022-10-12T19:57:49.239Z,100935.08
2022-10-12T19:58:44.861Z,100935.08
2022-10-12T19:59:51.414Z,100946.28
2022-10-12T20:01:03.576Z,100939.81
2022-10-12T20:02:11.230Z,100942.35
2022-10-12T20:03:18.296Z,100939.56
2022-10-12T20:05:47.773Z,100938.45
2022-10-12T20:06:51.827Z,100939.30
2022-10-12T20:08:00.794Z,100943.82
2022-10-12T20:09:08.086Z,100940.15
2022-10-12T20:10:12.112Z,100940.15
2022-10-12T20:11:20.450Z,100951.87
2022-10-12T20:12:27.802Z,100940.15
2022-10-12T20:13:32.404Z,100940.15
2022-10-12T20:14:39.093Z,100941.98
2022-10-12T20:15:43.091Z,100941.98
2022-10-12T20:16:48.416Z,100944.66
2022-10-12T20:17:54.004Z,100943.82
2022-10-12T20:18:58.086Z,100948.34
2022-10-12T20:20:02.468Z,100936.77
2022-10-12T20:21:09.005Z,100941.14
2022-10-12T20:22:12.923Z,100942.13
2022-10-12T20:24:37.078Z,100942.13
2022-10-12T20:24:39.972Z,100824.59
2022-10-12T20:25:45.619Z,100944.08
2022-10-12T20:27:04.430Z,100944.08
2022-10-12T20:27:55.527Z,100943.34
2022-10-12T20:29:01.652Z,100942.61
2022-10-12T20:30:07.845Z,100947.38
2022-10-12T20:31:13.648Z,100944.81
2022-10-12T20:32:19.395Z,100941.28
2022-10-12T20:33:49.606Z,100940.55
2022-10-12T20:34:52.084Z,100943.97
2022-10-12T20:36:01.623Z,100943.97
2022-10-12T20:37:57.384Z,100946.65
2022-10-12T20:38:25.654Z,100950.17
2022-10-12T20:39:28.962Z,100941.28
2022-10-12T20:40:33.107Z,100941.17
2022-10-12T20:41:45.864Z,100941.17
2022-10-12T20:42:49.011Z,100945.55
2022-10-12T20:43:58.894Z,100944.59
2022-10-12T20:45:03.044Z,100946.28
2022-10-12T20:46:09.940Z,100947.12
2022-10-12T20:47:14.095Z,100949.70
2022-10-12T20:49:41.395Z,100951.50
2022-10-12T20:50:51.429Z,100945.18
2022-10-12T20:51:51.160Z,100945.18
2022-10-12T20:52:56.713Z,100950.55
2022-10-12T20:54:05.990Z,100950.40
2022-10-12T20:55:14.059Z,100950.40
2022-10-12T20:56:53.838Z,100949.44
2022-10-12T21:08:44.508Z,100951.02
2022-10-12T21:09:48.503Z,100951.50
2022-10-12T21:10:52.776Z,100953.33
2022-10-12T21:11:58.526Z,100951.64
2022-10-12T21:13:02.688Z,100951.64
2022-10-12T21:14:23.507Z,100950.06
2022-10-12T21:15:26.911Z,100948.38
2022-10-12T21:19:17.530Z,100947.75
2022-10-12T21:20:21.602Z,100948.00
2022-10-12T21:21:29.209Z,100948.38
2022-10-12T21:22:37.095Z,100951.19
2022-10-12T21:23:43.166Z,100952.15
2022-10-12T21:24:50.422Z,100950.56
2022-10-12T21:26:01.316Z,100949.02
2022-10-12T21:27:17.322Z,100949.02
2022-10-12T21:28:15.359Z,100957.28
2022-10-12T21:29:31.174Z,100955.59
2022-10-12T21:30:27.433Z,100952.17
2022-10-12T21:31:32.803Z,100957.67
2022-10-12T21:32:37.346Z,100957.67
2022-10-12T21:33:46.867Z,100955.24
2022-10-12T21:34:53.869Z,100956.20
2022-10-12T21:36:15.476Z,100952.67
2022-10-12T21:37:16.389Z,100952.92
2022-10-12T21:38:20.429Z,100954.87
2022-10-12T21:39:24.435Z,100954.87
2022-10-12T21:40:30.058Z,100956.70
2022-10-12T21:41:37.819Z,100951.45
2022-10-12T21:42:43.472Z,100951.45
2022-10-12T21:43:52.798Z,100957.91
2022-10-12T21:45:22.703Z,100962.42
2022-10-12T21:46:16.563Z,100959.88
2022-10-12T21:47:20.457Z,100966.20
2022-10-12T21:48:31.008Z,100958.55
2022-10-12T21:50:21.677Z,100959.64
2022-10-12T21:50:47.287Z,100963.41
2022-10-12T21:51:56.078Z,100960.84
2022-10-12T21:53:01.713Z,100960.84
2022-10-12T21:54:06.829Z,100952.95
2022-10-12T21:55:15.004Z,100964.61
2022-10-12T21:56:21.010Z,100961.20
2022-10-12T21:57:27.826Z,100960.48
2022-10-12T21:58:33.433Z,100960.48
2022-10-12T21:59:41.702Z,100958.77
2022-10-12T22:00:45.181Z,100967.78
2022-10-12T22:01:52.649Z,100957.08
2022-10-12T22:02:58.241Z,100967.78
2022-10-12T22:04:06.810Z,100964.37
2022-10-12T22:05:10.872Z,100964.37
2022-10-12T22:06:18.728Z,100964.37
2022-10-12T22:07:23.907Z,100964.37
2022-10-12T22:08:29.917Z,100968.98
2022-10-12T22:09:37.131Z,100965.46
2022-10-12T22:10:41.323Z,100957.42
2022-10-12T22:11:48.171Z,100964.61
2022-10-12T22:12:53.770Z,100964.61
2022-10-12T22:26:11.339Z,100965.30
2022-10-12T22:27:15.392Z,100965.30
2022-10-12T22:28:21.804Z,100964.36
2022-10-12T22:29:27.519Z,100959.74
2022-10-12T22:30:35.403Z,100962.17
2022-10-12T23:19:18.370Z,100971.69
2022-10-12T23:35:06.299Z,100976.80
2022-10-12T23:36:13.722Z,100981.91
2022-10-12T23:37:19.246Z,100978.24
2022-10-12T23:38:23.508Z,100976.30
2022-10-12T23:39:30.904Z,100971.69
2022-10-12T23:40:42.836Z,100972.42
2022-10-12T23:41:46.921Z,100974.11
2022-10-12T23:42:50.897Z,100974.84
2022-10-12T23:43:54.994Z,100973.02
2022-10-12T23:44:59.020Z,100975.59
2022-10-12T23:46:06.909Z,100975.59
2022-10-12T23:48:33.153Z,100972.66
2022-10-12T23:49:40.870Z,100974.34
2022-10-12T23:51:51.332Z,100975.93
2022-10-12T23:53:58.119Z,100977.62
2022-10-12T23:55:03.311Z,100971.16
2022-10-12T23:56:09.355Z,100970.91
2022-10-12T23:57:41.631Z,100974.33
2022-10-12T23:58:26.662Z,100977.02
2022-10-12T23:59:33.504Z,100975.31
